Marcella, Arkansas
Current Conditions -  °F | °C
As of 4:35 AM on Thursday 18 Dec 2014 (Local Time) from KBVX Reporting Station
Overcast Overcast  
Wind Chill: 31°   Ceiling: 4500
Heat Index: 36°   Visibility: 8mi
Dew Point: 32°   Wind: 6mph
Humidity: 87%   Direction: 100°E
Pressure: 30.21"   Gusts: NA
Location:  35.79°N, 91.88°W
Report Text: KBVX 181035Z AUTO 10005KT 8SM OVC045 02/00 A3021 RMK AO1
Loading
Personal Weather Stations






























Interactive Weather Map New forecast layout! Learn more

10-Day Weather Forecast

Advertisements
Track Severe Weather on mobile